Time;durP1;ratioP1;P1;durP2;ratioP2;P2;SDS_P1;SDS_P2;PMS_P1;PMS_P2;Temp;Humidity;BMP_temperature;BMP_pressure;BME280_temperature;BME280_humidity;BME280_pressure;Samples;Min_cycle;Max_cycle;Signal;HPM_P1;HPM_P2
2022/12/14 00:00:26;;;;;;;8.80;6.05;;;0.50;97.20;;;;;;5041718;28;20209;-75
2022/12/14 00:03:12;;;;;;;10.02;7.43;;;0.50;96.40;;;;;;5042540;28;20804;-75
2022/12/14 00:05:57;;;;;;;10.23;6.35;;;0.40;95.40;;;;;;5044164;28;20205;-74
2022/12/14 00:08:43;;;;;;;9.02;6.88;;;0.40;97.40;;;;;;5039263;28;20208;-75
2022/12/14 00:11:30;;;;;;;9.45;6.43;;;0.40;97.10;;;;;;5042817;28;20327;-74
2022/12/14 00:14:16;;;;;;;9.68;6.40;;;0.50;97.30;;;;;;5045481;28;20225;-75
2022/12/14 00:17:03;;;;;;;9.00;5.90;;;0.40;97.80;;;;;;5040059;28;20208;-75
2022/12/14 00:19:48;;;;;;;10.80;7.90;;;0.50;97.80;;;;;;5037515;28;20205;-75
2022/12/14 00:22:34;;;;;;;10.40;6.32;;;0.50;97.80;;;;;;5040196;28;20587;-75
2022/12/14 00:25:19;;;;;;;11.70;7.10;;;0.60;98.00;;;;;;5043616;28;20263;-75
2022/12/14 00:28:05;;;;;;;10.43;6.45;;;0.70;97.90;;;;;;5041958;28;20351;-75
2022/12/14 00:30:56;;;;;;;9.85;6.53;;;0.60;99.00;;;;;;5045283;28;20290;-74
2022/12/14 00:33:44;;;;;;;11.18;7.68;;;0.70;97.90;;;;;;5046121;28;20244;-73
2022/12/14 00:36:30;;;;;;;10.63;6.70;;;0.60;99.40;;;;;;5044420;28;20771;-73
2022/12/14 00:39:16;;;;;;;8.95;6.82;;;0.70;99.60;;;;;;5047517;28;20767;-75
2022/12/14 00:42:02;;;;;;;8.05;5.72;;;0.70;98.90;;;;;;5046917;28;20198;-75
2022/12/14 00:44:47;;;;;;;11.30;6.95;;;0.70;98.40;;;;;;5041262;28;20645;-75
2022/12/14 00:47:33;;;;;;;9.05;5.80;;;0.80;98.80;;;;;;5047694;28;20209;-74
2022/12/14 00:50:20;;;;;;;11.07;6.55;;;0.80;99.90;;;;;;5049281;28;20576;-75
2022/12/14 00:53:06;;;;;;;9.05;6.85;;;0.70;99.90;;;;;;5045880;28;20611;-75
2022/12/14 00:55:52;;;;;;;10.07;6.53;;;0.80;99.90;;;;;;5049054;28;20588;-74
2022/12/14 00:58:37;;;;;;;9.13;6.50;;;0.70;99.90;;;;;;5045108;28;20232;-75
2022/12/14 01:01:23;;;;;;;8.40;6.70;;;0.70;99.90;;;;;;5049446;28;20429;-75
2022/12/14 01:04:18;;;;;;;11.20;7.25;;;0.70;99.90;;;;;;5049217;28;20224;-75
2022/12/14 01:07:05;;;;;;;11.35;7.00;;;0.70;99.90;;;;;;5042212;28;20323;-75
2022/12/14 01:09:50;;;;;;;11.20;7.57;;;0.70;99.90;;;;;;5045100;28;20239;-75
2022/12/14 01:12:35;;;;;;;10.27;7.15;;;0.60;99.90;;;;;;5047836;28;20204;-76
2022/12/14 01:15:21;;;;;;;11.70;7.65;;;0.60;99.90;;;;;;5050421;28;20224;-75
2022/12/14 01:18:07;;;;;;;11.50;7.10;;;0.50;99.90;;;;;;5042853;28;20201;-74
2022/12/14 01:20:52;;;;;;;10.50;7.93;;;0.50;99.90;;;;;;5049585;28;20213;-75
2022/12/14 01:23:39;;;;;;;10.05;7.50;;;0.50;99.90;;;;;;5051105;28;20779;-74
2022/12/14 01:26:27;;;;;;;11.38;6.82;;;0.40;99.90;;;;;;5045226;28;20279;-72
2022/12/14 01:29:12;;;;;;;11.13;7.50;;;0.40;99.90;;;;;;5048012;28;20552;-75
2022/12/14 01:31:58;;;;;;;12.88;7.93;;;0.40;99.50;;;;;;5042583;28;20196;-74
2022/12/14 01:34:43;;;;;;;11.13;7.57;;;0.30;99.90;;;;;;5049714;28;20319;-74
2022/12/14 01:37:29;;;;;;;8.80;7.10;;;0.40;99.90;;;;;;5039964;28;20718;-75
2022/12/14 01:40:16;;;;;;;13.30;8.43;;;0.40;99.90;;;;;;5040016;28;20209;-75
2022/12/14 01:43:02;;;;;;;12.15;7.70;;;0.30;99.90;;;;;;5041230;28;20267;-74
2022/12/14 01:45:48;;;;;;;12.20;8.38;;;0.40;99.90;;;;;;5049091;28;20324;-72
2022/12/14 01:48:33;;;;;;;11.20;8.50;;;0.30;99.90;;;;;;5042269;28;20229;-75
2022/12/14 01:51:19;;;;;;;11.43;8.02;;;0.30;99.90;;;;;;5046559;28;20197;-75
2022/12/14 01:54:10;;;;;;;12.30;8.65;;;0.30;99.90;;;;;;5046123;28;20748;-75
2022/12/14 01:56:57;;;;;;;12.05;7.47;;;0.40;99.90;;;;;;5043443;28;20237;-75
2022/12/14 01:59:46;;;;;;;10.57;7.80;;;0.40;99.90;;;;;;5047448;28;20209;-75
2022/12/14 02:02:32;;;;;;;12.02;8.82;;;0.40;99.90;;;;;;5048364;28;20223;-75
2022/12/14 02:05:21;;;;;;;16.15;9.88;;;0.40;99.90;;;;;;5036261;28;20622;-74
2022/12/14 02:08:07;;;;;;;12.15;7.65;;;0.40;99.90;;;;;;5037718;28;20197;-75
2022/12/14 02:10:55;;;;;;;10.00;7.25;;;0.50;99.90;;;;;;5047442;28;20209;-75
2022/12/14 02:13:42;;;;;;;12.52;8.75;;;0.50;99.90;;;;;;5047077;28;20225;-73
2022/12/14 02:16:28;;;;;;;11.10;8.50;;;0.50;99.90;;;;;;5043107;28;20233;-75
2022/12/14 02:19:14;;;;;;;15.68;8.30;;;0.50;99.90;;;;;;5046183;28;20265;-75
2022/12/14 02:22:25;;;;;;;15.57;8.13;;;0.50;99.90;;;;;;5038005;28;20205;-75
2022/12/14 02:25:40;;;;;;;12.90;8.38;;;0.50;99.90;;;;;;5037089;28;20681;-74
2022/12/14 02:28:47;;;;;;;11.30;8.07;;;0.40;99.90;;;;;;5047335;28;20626;-75
2022/12/14 02:31:43;;;;;;;11.60;8.35;;;0.40;99.90;;;;;;5042869;28;20212;-75
2022/12/14 02:34:38;;;;;;;13.30;9.65;;;0.50;99.90;;;;;;5049114;28;20558;-73
2022/12/14 02:37:32;;;;;;;14.68;9.98;;;0.50;99.90;;;;;;5043292;28;20224;-74
2022/12/14 02:40:28;;;;;;;13.38;8.15;;;0.50;99.90;;;;;;5049243;28;20200;-74
2022/12/14 02:43:19;;;;;;;11.15;8.90;;;0.50;99.90;;;;;;5042530;28;20783;-74
2022/12/14 02:46:15;;;;;;;14.45;8.75;;;0.50;99.90;;;;;;5037566;28;20337;-73
2022/12/14 02:49:10;;;;;;;14.23;9.73;;;0.40;99.90;;;;;;5045326;28;20206;-73
2022/12/14 02:52:04;;;;;;;13.70;8.35;;;0.30;99.90;;;;;;5045450;28;20351;-73
2022/12/14 02:54:56;;;;;;;15.93;10.88;;;0.30;99.90;;;;;;5036059;28;20227;-73
2022/12/14 02:57:47;;;;;;;15.57;8.75;;;0.40;99.90;;;;;;5039898;28;20209;-73
2022/12/14 03:00:36;;;;;;;11.18;8.73;;;0.30;99.90;;;;;;5048934;28;20746;-74
2022/12/14 03:03:21;;;;;;;16.70;9.65;;;0.30;99.90;;;;;;5045348;28;20229;-73
2022/12/14 03:06:14;;;;;;;11.48;9.23;;;0.40;99.90;;;;;;5042035;28;20677;-74
2022/12/14 03:09:03;;;;;;;19.58;10.00;;;0.30;99.90;;;;;;5041045;28;20517;-73
2022/12/14 03:11:54;;;;;;;13.07;9.60;;;0.30;99.90;;;;;;5036779;28;20209;-73
2022/12/14 03:14:44;;;;;;;14.65;9.90;;;0.30;99.90;;;;;;5037085;28;20714;-76
2022/12/14 03:17:32;;;;;;;17.00;10.55;;;0.30;99.90;;;;;;5041559;28;20274;-73
2022/12/14 03:20:22;;;;;;;15.40;10.05;;;0.30;99.90;;;;;;5041245;28;20209;-73
2022/12/14 03:23:13;;;;;;;14.63;9.93;;;0.30;99.90;;;;;;5045169;28;20268;-72
2022/12/14 03:26:06;;;;;;;13.45;9.52;;;0.30;99.90;;;;;;5042217;28;20332;-73
2022/12/14 03:28:57;;;;;;;15.63;9.85;;;0.30;99.90;;;;;;5045251;28;20239;-72
2022/12/14 03:31:47;;;;;;;14.68;9.80;;;0.30;99.90;;;;;;5045006;28;20216;-73
2022/12/14 03:34:37;;;;;;;16.02;11.02;;;0.40;99.90;;;;;;5044634;28;21041;-73
2022/12/14 03:37:29;;;;;;;13.68;10.80;;;0.40;99.90;;;;;;5043429;28;20351;-74
2022/12/14 03:40:18;;;;;;;16.38;10.13;;;0.30;99.90;;;;;;5043536;28;20201;-74
2022/12/14 03:43:10;;;;;;;15.80;10.40;;;0.40;99.90;;;;;;5041894;28;20268;-72
2022/12/14 03:46:03;;;;;;;15.15;10.55;;;0.40;99.90;;;;;;5038111;28;20248;-74
2022/12/14 03:48:52;;;;;;;13.88;9.27;;;0.30;99.90;;;;;;5045009;28;20201;-74
2022/12/14 03:51:44;;;;;;;17.70;11.52;;;0.40;99.90;;;;;;5037962;28;20550;-73
2022/12/14 03:54:43;;;;;;;17.42;10.55;;;0.40;99.90;;;;;;5038524;28;20598;-74
2022/12/14 03:57:44;;;;;;;12.27;10.20;;;0.40;99.90;;;;;;5043786;28;20730;-73
2022/12/14 04:00:34;;;;;;;15.77;10.55;;;0.50;99.90;;;;;;5047150;28;20204;-73
2022/12/14 04:03:29;;;;;;;16.83;11.15;;;0.50;99.90;;;;;;5039486;28;20303;-74
2022/12/14 04:06:23;;;;;;;15.68;10.20;;;0.40;99.90;;;;;;5043610;28;20204;-73
2022/12/14 04:09:24;;;;;;;14.48;11.05;;;0.40;99.90;;;;;;5039564;28;20209;-73
2022/12/14 04:21:41;;;;;;;15.60;10.63;;;0.40;99.90;;;;;;5048876;28;20633;-73
2022/12/14 04:27:58;;;;;;;16.20;11.60;;;0.50;99.90;;;;;;4985736;28;20688;-74
2022/12/14 04:30:44;;;;;;;16.25;11.25;;;0.50;99.90;;;;;;4986024;28;20207;-74
2022/12/14 04:36:40;;;;;;;21.00;11.45;;;0.60;99.90;;;;;;5049114;28;20259;-74
2022/12/14 04:39:35;;;;;;;14.13;10.13;;;0.60;99.90;;;;;;5043813;28;20778;-73
2022/12/14 04:42:24;;;;;;;17.52;10.98;;;0.50;99.90;;;;;;5040214;28;20720;-73
2022/12/14 04:45:15;;;;;;;18.83;12.10;;;0.50;99.90;;;;;;5042180;28;20222;-73
2022/12/14 04:48:12;;;;;;;15.90;11.90;;;0.40;99.90;;;;;;5051746;28;20193;-74
2022/12/14 04:51:08;;;;;;;17.77;11.50;;;0.50;99.90;;;;;;5048243;28;20212;-73
2022/12/14 04:53:58;;;;;;;14.85;10.60;;;0.50;99.90;;;;;;5037522;28;20299;-74
2022/12/14 04:56:49;;;;;;;18.00;11.50;;;0.60;99.90;;;;;;5049460;28;20585;-74
2022/12/14 04:59:35;;;;;;;15.52;11.15;;;0.60;99.90;;;;;;5048387;28;20276;-73
2022/12/14 05:02:30;;;;;;;15.65;11.82;;;0.60;99.90;;;;;;5035894;28;20675;-73
2022/12/14 05:05:24;;;;;;;17.60;12.85;;;0.60;99.90;;;;;;5041536;28;20573;-73
2022/12/14 05:08:17;;;;;;;19.65;12.18;;;0.60;99.90;;;;;;5047932;28;20682;-73
2022/12/14 05:11:11;;;;;;;23.67;13.25;;;0.60;99.90;;;;;;5035062;28;20563;-73
2022/12/14 05:13:57;;;;;;;22.10;13.27;;;0.60;99.90;;;;;;5041717;28;20595;-73
2022/12/14 05:16:42;;;;;;;18.48;12.80;;;0.70;99.90;;;;;;5050000;28;20220;-74
2022/12/14 05:19:28;;;;;;;15.50;12.18;;;0.70;99.90;;;;;;5045964;28;20277;-73
2022/12/14 05:22:15;;;;;;;23.80;12.77;;;0.70;99.90;;;;;;5039301;28;20205;-73
2022/12/14 05:25:00;;;;;;;18.67;13.57;;;0.70;99.90;;;;;;5043230;28;20205;-74
2022/12/14 05:27:46;;;;;;;21.27;14.40;;;0.60;99.90;;;;;;5041638;28;20324;-73
2022/12/14 05:30:32;;;;;;;21.88;13.88;;;0.50;99.90;;;;;;5048621;28;20565;-73
2022/12/14 05:33:19;;;;;;;18.42;13.23;;;0.50;99.90;;;;;;5039608;28;20252;-74
2022/12/14 05:36:06;;;;;;;18.80;13.50;;;0.40;99.90;;;;;;5038342;28;20245;-73
2022/12/14 05:38:53;;;;;;;18.67;13.93;;;0.40;99.90;;;;;;5042431;28;20208;-73
2022/12/14 05:41:38;;;;;;;20.35;15.15;;;0.40;99.90;;;;;;5040763;28;20280;-73
2022/12/14 05:44:24;;;;;;;21.58;14.77;;;0.40;99.90;;;;;;5042624;28;20228;-73
2022/12/14 05:47:10;;;;;;;21.85;16.27;;;0.50;99.90;;;;;;5043710;28;20733;-73
2022/12/14 05:49:55;;;;;;;18.63;14.30;;;0.50;99.90;;;;;;5040769;28;20204;-74
2022/12/14 05:52:41;;;;;;;21.65;15.20;;;0.50;99.90;;;;;;5039289;28;20223;-74
2022/12/14 05:55:28;;;;;;;24.77;16.40;;;0.40;99.90;;;;;;5041976;28;20217;-73
2022/12/14 05:58:13;;;;;;;19.98;15.13;;;0.50;99.90;;;;;;5040401;28;20221;-74
2022/12/14 06:01:00;;;;;;;22.60;17.13;;;0.60;99.90;;;;;;5050013;28;20296;-73
2022/12/14 06:03:46;;;;;;;27.35;19.30;;;0.60;99.90;;;;;;5043768;28;20228;-74
2022/12/14 06:06:33;;;;;;;23.20;17.17;;;0.70;99.90;;;;;;5047882;28;20205;-73
2022/12/14 06:09:19;;;;;;;23.50;16.35;;;0.70;99.90;;;;;;5045280;28;20194;-73
2022/12/14 06:12:06;;;;;;;24.73;15.95;;;0.70;99.90;;;;;;5041452;28;20205;-74
2022/12/14 06:14:52;;;;;;;25.38;17.50;;;0.70;99.90;;;;;;5043618;28;20237;-73
2022/12/14 06:17:42;;;;;;;20.02;14.77;;;0.70;99.90;;;;;;5049803;28;20307;-74
2022/12/14 06:20:28;;;;;;;25.23;16.80;;;0.80;99.90;;;;;;5042321;28;20696;-73
2022/12/14 06:23:14;;;;;;;19.15;15.00;;;0.70;99.90;;;;;;5039215;28;20303;-73
2022/12/14 06:25:59;;;;;;;25.02;17.85;;;0.70;99.90;;;;;;5045350;28;20709;-73
2022/12/14 06:28:46;;;;;;;25.80;16.77;;;0.70;99.90;;;;;;5044227;28;20274;-74
2022/12/14 06:31:33;;;;;;;23.80;16.50;;;0.60;99.90;;;;;;5048663;28;20290;-75
2022/12/14 06:34:19;;;;;;;24.85;16.65;;;0.60;99.90;;;;;;5045876;28;20761;-73
2022/12/14 06:37:05;;;;;;;20.35;15.40;;;0.60;99.90;;;;;;5038711;28;20260;-74
2022/12/14 06:39:50;;;;;;;23.05;16.30;;;0.50;99.90;;;;;;5042316;28;20662;-73
2022/12/14 06:42:36;;;;;;;23.80;17.20;;;0.40;99.90;;;;;;5036701;28;20205;-74
2022/12/14 06:45:23;;;;;;;28.63;17.13;;;0.40;99.90;;;;;;5043631;28;20227;-73
2022/12/14 06:48:09;;;;;;;28.25;17.70;;;0.40;99.90;;;;;;5043454;28;20217;-73
2022/12/14 06:51:00;;;;;;;25.45;18.27;;;0.30;99.90;;;;;;5043107;28;20208;-74
2022/12/14 06:53:46;;;;;;;25.20;17.25;;;0.30;99.90;;;;;;5042712;28;20229;-75
2022/12/14 06:56:31;;;;;;;25.73;17.75;;;0.30;99.90;;;;;;5039965;28;20228;-73
2022/12/14 06:59:17;;;;;;;27.88;17.50;;;0.30;99.90;;;;;;5041578;28;20675;-73
2022/12/14 07:02:04;;;;;;;26.77;17.58;;;0.30;99.90;;;;;;5041917;28;20392;-73
2022/12/14 07:04:49;;;;;;;26.33;17.02;;;0.30;99.90;;;;;;5044279;28;20224;-73
2022/12/14 07:07:35;;;;;;;24.77;16.50;;;0.30;99.90;;;;;;5037004;28;20201;-74
2022/12/14 07:10:21;;;;;;;26.88;19.27;;;0.30;99.90;;;;;;5047810;28;20204;-73
2022/12/14 07:13:06;;;;;;;24.15;18.05;;;0.20;99.90;;;;;;5039173;28;20596;-74
2022/12/14 07:15:53;;;;;;;26.63;17.90;;;0.30;99.90;;;;;;5037742;28;20212;-73
2022/12/14 07:18:40;;;;;;;26.92;17.80;;;0.30;99.90;;;;;;5043362;28;20204;-73
2022/12/14 07:21:26;;;;;;;30.23;19.52;;;0.30;99.90;;;;;;5042306;28;20224;-73
2022/12/14 07:24:11;;;;;;;24.65;18.40;;;0.30;99.90;;;;;;5042953;28;20220;-73
2022/12/14 07:26:57;;;;;;;31.52;20.70;;;0.30;99.90;;;;;;5045847;28;20197;-73
2022/12/14 07:29:43;;;;;;;25.67;18.25;;;0.20;99.90;;;;;;5045529;28;20243;-75
2022/12/14 07:32:29;;;;;;;26.35;18.15;;;0.20;99.90;;;;;;5042143;28;20682;-74
2022/12/14 07:35:24;;;;;;;27.90;17.92;;;0.20;99.90;;;;;;5083883;28;20690;-73
2022/12/14 07:38:10;;;;;;;26.20;18.33;;;0.30;99.90;;;;;;5061177;28;20196;-73
2022/12/14 07:41:02;;;;;;;26.92;18.00;;;0.30;99.90;;;;;;5065714;28;20203;-73
2022/12/14 07:43:47;;;;;;;22.92;16.10;;;0.40;99.90;;;;;;5059625;28;20236;-73
2022/12/14 07:46:33;;;;;;;22.23;17.38;;;0.40;99.90;;;;;;5068979;28;20211;-73
2022/12/14 07:49:19;;;;;;;26.88;18.73;;;0.40;99.90;;;;;;5064411;28;20701;-73
2022/12/14 07:52:06;;;;;;;24.83;17.80;;;0.50;99.90;;;;;;5058063;28;20208;-73
2022/12/14 07:54:51;;;;;;;25.77;17.73;;;0.60;99.90;;;;;;5063940;28;20227;-73
2022/12/14 07:57:37;;;;;;;27.50;18.58;;;0.50;99.90;;;;;;5067033;28;20203;-73
2022/12/14 08:00:23;;;;;;;26.85;17.85;;;0.50;99.90;;;;;;5064415;28;20208;-72
2022/12/14 08:03:08;;;;;;;22.02;16.42;;;0.50;99.90;;;;;;5064865;28;20223;-73
2022/12/14 08:05:54;;;;;;;24.63;18.33;;;0.50;99.90;;;;;;5074552;28;20211;-73
2022/12/14 08:08:41;;;;;;;26.13;17.75;;;0.50;99.90;;;;;;5072071;28;20203;-75
2022/12/14 08:11:28;;;;;;;23.33;17.80;;;0.60;99.90;;;;;;5058604;28;20275;-73
2022/12/14 08:14:16;;;;;;;29.13;18.63;;;0.60;99.90;;;;;;5067020;28;20231;-73
2022/12/14 08:17:01;;;;;;;28.48;18.23;;;0.60;99.90;;;;;;5064225;28;20216;-73
2022/12/14 08:19:47;;;;;;;26.88;18.80;;;0.60;99.90;;;;;;5068963;28;20203;-73
2022/12/14 08:22:32;;;;;;;27.60;19.42;;;0.60;99.90;;;;;;5052661;28;20201;-73
2022/12/14 08:25:19;;;;;;;28.55;19.48;;;0.70;99.90;;;;;;5057552;28;20209;-75
2022/12/14 08:28:05;;;;;;;30.52;20.42;;;0.70;99.90;;;;;;5065537;28;20243;-74
2022/12/14 08:30:51;;;;;;;31.23;20.33;;;0.60;99.90;;;;;;5063098;28;20201;-74
2022/12/14 08:33:38;;;;;;;30.27;19.35;;;0.50;99.90;;;;;;5065532;28;20274;-72
2022/12/14 08:36:26;;;;;;;28.38;19.70;;;0.60;99.90;;;;;;5072112;28;20220;-74
2022/12/14 08:39:13;;;;;;;26.70;19.15;;;0.60;99.90;;;;;;5055779;28;20736;-74
2022/12/14 08:41:59;;;;;;;36.50;22.85;;;0.70;99.90;;;;;;5056961;28;20216;-74
2022/12/14 08:44:45;;;;;;;36.50;25.20;;;0.70;99.90;;;;;;5070120;28;20224;-74
2022/12/14 08:47:31;;;;;;;32.97;22.63;;;0.70;99.90;;;;;;5058445;28;20208;-76
2022/12/14 08:50:17;;;;;;;32.88;23.25;;;0.70;99.90;;;;;;5051070;28;20201;-73
2022/12/14 08:53:02;;;;;;;30.80;21.20;;;0.70;99.90;;;;;;5050702;28;20229;-73
2022/12/14 08:55:48;;;;;;;34.13;23.05;;;0.80;99.90;;;;;;5056170;28;20216;-74
2022/12/14 08:58:35;;;;;;;29.58;22.33;;;0.80;99.90;;;;;;5053012;28;20252;-74
2022/12/14 09:01:23;;;;;;;34.22;23.55;;;0.70;99.90;;;;;;5041269;28;20205;-73
2022/12/14 09:04:09;;;;;;;32.17;22.30;;;0.70;99.90;;;;;;5041082;28;20341;-73
2022/12/14 09:06:55;;;;;;;30.73;20.50;;;0.80;99.90;;;;;;5054462;28;20282;-74
2022/12/14 09:09:41;;;;;;;29.38;19.05;;;0.80;99.90;;;;;;5054963;28;20674;-74
2022/12/14 09:12:27;;;;;;;31.27;21.20;;;0.80;99.90;;;;;;5041709;28;20331;-74
2022/12/14 09:15:14;;;;;;;28.05;21.60;;;0.70;99.90;;;;;;5051723;28;20224;-74
2022/12/14 09:18:00;;;;;;;32.08;21.85;;;0.70;99.90;;;;;;5049809;28;20319;-75
2022/12/14 09:20:46;;;;;;;30.50;21.40;;;0.60;99.90;;;;;;5045754;28;20213;-74
2022/12/14 09:23:33;;;;;;;32.25;20.52;;;0.60;99.90;;;;;;5047102;28;20228;-74
2022/12/14 09:26:20;;;;;;;22.55;17.63;;;0.50;99.90;;;;;;5047223;28;20211;-74
2022/12/14 09:29:06;;;;;;;31.25;21.40;;;0.50;99.90;;;;;;5059279;28;20201;-74
2022/12/14 09:31:53;;;;;;;31.25;19.45;;;0.60;99.90;;;;;;5042528;28;20320;-74
2022/12/14 09:34:38;;;;;;;30.08;20.77;;;0.50;99.90;;;;;;5039925;28;20701;-73
2022/12/14 09:37:24;;;;;;;30.20;21.35;;;0.40;99.90;;;;;;5044470;28;20209;-73
2022/12/14 09:40:13;;;;;;;30.15;21.52;;;0.50;99.90;;;;;;5049173;28;20233;-73
2022/12/14 09:43:03;;;;;;;28.38;18.75;;;0.60;99.90;;;;;;5053636;28;20231;-73
2022/12/14 09:45:55;;;;;;;29.90;18.88;;;0.60;99.90;;;;;;5050079;28;20610;-75
2022/12/14 09:48:43;;;;;;;27.73;18.42;;;0.60;99.90;;;;;;5051087;28;20208;-73
2022/12/14 09:51:33;;;;;;;27.10;19.17;;;0.60;99.90;;;;;;5041654;28;20209;-75
2022/12/14 09:54:25;;;;;;;29.92;20.83;;;0.60;99.90;;;;;;5044153;28;20614;-73
2022/12/14 09:57:15;;;;;;;28.08;20.30;;;0.60;99.90;;;;;;5041796;28;20324;-73
2022/12/14 10:00:00;;;;;;;31.38;21.38;;;0.70;99.90;;;;;;5044203;28;20689;-73
2022/12/14 10:02:58;;;;;;;33.53;22.33;;;0.60;99.90;;;;;;5049549;28;20336;-73
2022/12/14 10:05:59;;;;;;;27.25;19.65;;;0.60;99.90;;;;;;5050112;28;20197;-74
2022/12/14 10:08:50;;;;;;;29.05;20.48;;;0.60;99.90;;;;;;5051641;28;20320;-74
2022/12/14 10:11:43;;;;;;;27.00;19.13;;;0.70;99.90;;;;;;5043403;28;20213;-75
2022/12/14 10:14:38;;;;;;;27.48;19.30;;;0.70;99.90;;;;;;5042590;28;20310;-71
2022/12/14 10:17:31;;;;;;;26.50;18.58;;;0.70;99.90;;;;;;5057437;28;20213;-72
2022/12/14 10:20:24;;;;;;;27.05;19.42;;;0.70;99.90;;;;;;5041527;28;20331;-73
2022/12/14 10:23:16;;;;;;;35.35;24.15;;;0.80;99.90;;;;;;5051345;28;20236;-72
2022/12/14 10:26:07;;;;;;;30.65;21.80;;;0.80;99.90;;;;;;5043054;28;20670;-72
2022/12/14 10:28:58;;;;;;;27.17;20.27;;;0.90;99.90;;;;;;5042568;28;20197;-72
2022/12/14 10:31:51;;;;;;;26.75;20.02;;;1.00;99.90;;;;;;5046092;28;20200;-72
2022/12/14 10:34:42;;;;;;;31.00;18.98;;;1.00;99.90;;;;;;5046983;28;20233;-74
2022/12/14 10:37:34;;;;;;;28.60;20.23;;;1.00;99.90;;;;;;5052300;28;20573;-73
2022/12/14 10:40:26;;;;;;;30.83;20.33;;;1.10;99.90;;;;;;5048473;28;20283;-74
2022/12/14 10:43:32;;;;;;;27.58;18.50;;;1.10;99.90;;;;;;5053406;28;20224;-75
2022/12/14 10:46:26;;;;;;;26.90;18.55;;;1.20;99.90;;;;;;5041779;28;20251;-77
2022/12/14 10:49:17;;;;;;;31.58;20.75;;;1.20;99.90;;;;;;5043284;28;20322;-73
2022/12/14 10:52:07;;;;;;;26.02;20.05;;;1.20;99.90;;;;;;5052687;28;20212;-73
2022/12/14 10:54:56;;;;;;;24.30;17.48;;;1.20;99.90;;;;;;5047276;28;20348;-72
2022/12/14 10:57:43;;;;;;;31.67;19.45;;;1.20;99.90;;;;;;5055826;28;20275;-73
2022/12/14 11:00:28;;;;;;;29.92;18.45;;;1.30;99.90;;;;;;5041102;28;20244;-72
2022/12/14 11:03:15;;;;;;;24.65;17.30;;;1.30;99.90;;;;;;5059372;28;20229;-73
2022/12/14 11:06:07;;;;;;;24.75;18.75;;;1.30;99.90;;;;;;5037381;28;20288;-72
2022/12/14 11:08:53;;;;;;;29.65;20.00;;;1.30;99.90;;;;;;5051441;28;20212;-72
2022/12/14 11:11:38;;;;;;;24.95;17.63;;;1.30;99.90;;;;;;5049281;28;20259;-73
2022/12/14 11:14:26;;;;;;;26.42;17.58;;;1.30;99.90;;;;;;5042119;28;20752;-73
2022/12/14 11:17:34;;;;;;;23.73;16.90;;;1.30;99.90;;;;;;5052789;28;20258;-73
2022/12/14 11:20:23;;;;;;;26.23;17.88;;;1.20;99.90;;;;;;5049539;28;20204;-73
2022/12/14 11:23:19;;;;;;;25.95;18.45;;;1.30;99.90;;;;;;5044451;28;20225;-73
2022/12/14 11:26:08;;;;;;;24.83;17.67;;;1.30;99.90;;;;;;5051049;28;20203;-73
2022/12/14 11:28:56;;;;;;;41.25;25.52;;;1.30;99.90;;;;;;5057253;28;20204;-72
2022/12/14 11:31:45;;;;;;;25.40;19.08;;;1.30;99.90;;;;;;5053769;28;20213;-72
2022/12/14 11:34:36;;;;;;;22.85;17.13;;;1.30;99.90;;;;;;5037830;28;20368;-74
2022/12/14 11:37:24;;;;;;;25.88;18.17;;;1.20;99.90;;;;;;5049017;28;20425;-73
2022/12/14 11:40:20;;;;;;;27.13;18.20;;;1.20;99.90;;;;;;5055151;28;20577;-73
2022/12/14 11:43:11;;;;;;;27.83;18.95;;;1.10;99.90;;;;;;5043101;28;20216;-74
2022/12/14 11:45:58;;;;;;;29.00;19.95;;;1.10;99.90;;;;;;5045527;28;20208;-73
2022/12/14 11:48:48;;;;;;;27.52;18.77;;;1.00;99.90;;;;;;5052876;28;20212;-72
2022/12/14 11:51:34;;;;;;;22.48;16.80;;;1.00;99.90;;;;;;5055970;28;20227;-73
2022/12/14 11:54:19;;;;;;;25.75;17.85;;;1.00;99.90;;;;;;5039469;28;20228;-73
2022/12/14 11:57:08;;;;;;;26.30;16.73;;;1.20;99.90;;;;;;5053312;28;20208;-74
2022/12/14 11:59:56;;;;;;;26.85;18.90;;;1.20;99.90;;;;;;5056525;28;20678;-74
2022/12/14 12:02:49;;;;;;;22.88;17.23;;;1.20;99.90;;;;;;5046754;28;20208;-73
2022/12/14 12:05:41;;;;;;;25.98;17.98;;;1.20;99.90;;;;;;5042597;28;20223;-73
2022/12/14 12:08:28;;;;;;;24.50;15.95;;;1.30;99.90;;;;;;5047988;28;20204;-72
2022/12/14 12:11:17;;;;;;;21.67;15.68;;;1.30;99.90;;;;;;5050494;28;20209;-73
2022/12/14 12:14:06;;;;;;;24.60;16.65;;;1.30;99.90;;;;;;5051520;28;20733;-73
2022/12/14 12:16:52;;;;;;;25.48;18.30;;;1.10;99.90;;;;;;5052131;28;20677;-73
2022/12/14 12:19:39;;;;;;;22.42;16.45;;;1.00;99.90;;;;;;5039745;28;20209;-73
2022/12/14 12:22:28;;;;;;;25.55;17.75;;;1.10;99.90;;;;;;5035741;28;20200;-72
2022/12/14 12:25:17;;;;;;;28.45;17.40;;;1.10;99.90;;;;;;5047101;28;20562;-74
2022/12/14 12:28:12;;;;;;;28.98;18.85;;;1.20;99.90;;;;;;5059347;28;20204;-72
2022/12/14 12:31:03;;;;;;;27.67;17.70;;;1.30;99.90;;;;;;5052435;28;20197;-73
2022/12/14 12:33:54;;;;;;;27.58;18.70;;;1.30;99.90;;;;;;5049138;28;20597;-72
2022/12/14 12:36:40;;;;;;;40.15;23.73;;;1.30;99.90;;;;;;5052595;28;20282;-72
2022/12/14 12:39:29;;;;;;;25.67;17.20;;;1.30;99.90;;;;;;5061740;28;20208;-72
2022/12/14 12:42:23;;;;;;;26.95;18.05;;;1.30;99.90;;;;;;5040631;28;20205;-73
2022/12/14 12:45:16;;;;;;;23.42;16.90;;;1.30;99.90;;;;;;5039612;28;20576;-72
2022/12/14 12:48:06;;;;;;;23.52;16.98;;;1.30;99.90;;;;;;5045651;28;20587;-72
2022/12/14 12:50:57;;;;;;;27.85;20.00;;;1.40;99.90;;;;;;5050419;28;20203;-72
2022/12/14 12:53:46;;;;;;;22.30;16.55;;;1.20;99.90;;;;;;5035689;28;20746;-72
2022/12/14 12:56:39;;;;;;;27.55;17.98;;;1.30;99.90;;;;;;5044985;28;20238;-72
2022/12/14 12:59:35;;;;;;;25.52;17.50;;;1.30;99.90;;;;;;5044053;28;20256;-75
2022/12/14 13:02:30;;;;;;;25.45;17.38;;;1.30;99.90;;;;;;5041744;28;20205;-71
2022/12/14 13:05:19;;;;;;;30.23;20.45;;;1.30;99.90;;;;;;5039059;28;20212;-72
2022/12/14 13:08:13;;;;;;;27.33;18.33;;;1.20;99.90;;;;;;5044595;28;20223;-72
2022/12/14 13:11:01;;;;;;;41.28;27.15;;;1.30;99.90;;;;;;5054318;28;20206;-72
2022/12/14 13:13:52;;;;;;;26.65;19.55;;;1.30;99.90;;;;;;5050692;28;20219;-72
2022/12/14 13:16:40;;;;;;;32.45;22.08;;;1.30;99.90;;;;;;5062897;28;20240;-71
2022/12/14 13:19:45;;;;;;;28.13;18.50;;;1.30;99.90;;;;;;5055119;28;20576;-71
2022/12/14 13:22:34;;;;;;;32.97;17.13;;;1.30;99.90;;;;;;5056289;28;20247;-71
2022/12/14 13:25:24;;;;;;;23.33;15.82;;;1.20;99.90;;;;;;5042336;28;20204;-73
2022/12/14 13:28:24;;;;;;;22.98;16.33;;;1.30;99.90;;;;;;5051477;28;20767;-72
2022/12/14 13:31:25;;;;;;;24.40;16.85;;;1.30;99.90;;;;;;5051292;28;20210;-72
2022/12/14 13:34:19;;;;;;;33.50;17.55;;;1.30;99.90;;;;;;5037109;28;20238;-70
2022/12/14 13:37:47;;;;;;;26.00;16.45;;;1.40;99.90;;;;;;5049612;28;20201;-72
2022/12/14 13:40:59;;;;;;;27.15;17.02;;;1.40;99.90;;;;;;5057574;28;20685;-71
2022/12/14 13:44:01;;;;;;;27.50;16.83;;;1.30;99.90;;;;;;5040538;28;20228;-71
2022/12/14 13:46:57;;;;;;;23.52;16.77;;;1.30;99.90;;;;;;5044125;28;20201;-71
2022/12/14 13:49:51;;;;;;;22.77;17.27;;;1.40;99.90;;;;;;5034565;28;20337;-74
2022/12/14 13:52:42;;;;;;;24.27;17.52;;;1.40;99.90;;;;;;5047513;28;20332;-73
2022/12/14 13:55:34;;;;;;;28.27;17.80;;;1.30;99.90;;;;;;5032318;28;20225;-74
2022/12/14 13:58:22;;;;;;;27.80;17.23;;;1.40;99.90;;;;;;5036616;28;20209;-73
2022/12/14 14:01:13;;;;;;;29.48;18.60;;;1.40;99.90;;;;;;5033204;28;20672;-73
2022/12/14 14:04:21;;;;;;;26.90;16.85;;;1.30;99.90;;;;;;5032371;28;20288;-74
2022/12/14 14:07:48;;;;;;;24.48;16.30;;;1.20;99.90;;;;;;5036053;28;20213;-73
2022/12/14 14:10:35;;;;;;;25.55;17.50;;;1.30;99.90;;;;;;5033274;28;20200;-74
2022/12/14 14:14:06;;;;;;;28.33;17.50;;;1.30;99.90;;;;;;5037044;28;20536;-70
2022/12/14 14:16:55;;;;;;;26.23;17.45;;;1.40;99.90;;;;;;5035653;28;20341;-73
2022/12/14 14:19:42;;;;;;;33.55;19.30;;;1.40;99.90;;;;;;5046309;28;20690;-74
2022/12/14 14:22:30;;;;;;;37.50;21.83;;;1.40;99.90;;;;;;5052500;28;20341;-73
2022/12/14 14:25:38;;;;;;;38.88;21.98;;;1.30;99.90;;;;;;5051085;28;20308;-70
2022/12/14 14:28:29;;;;;;;29.08;20.33;;;1.30;99.90;;;;;;5033819;28;20221;-73
2022/12/14 14:31:15;;;;;;;25.98;18.45;;;1.40;99.90;;;;;;5032515;28;20249;-74
2022/12/14 14:34:00;;;;;;;31.48;20.20;;;1.30;99.90;;;;;;5031977;28;20232;-73
2022/12/14 14:36:47;;;;;;;39.78;23.45;;;1.30;99.90;;;;;;5031635;28;20264;-73
2022/12/14 14:39:37;;;;;;;34.90;21.42;;;1.30;99.90;;;;;;5049705;28;20209;-74
2022/12/14 14:42:25;;;;;;;32.55;18.77;;;1.20;99.90;;;;;;5046018;28;20221;-73
2022/12/14 14:45:30;;;;;;;26.55;17.52;;;1.10;99.90;;;;;;5049498;28;20573;-74
2022/12/14 14:48:27;;;;;;;31.00;18.80;;;1.20;99.90;;;;;;5037053;28;20689;-74
2022/12/14 14:51:19;;;;;;;24.83;17.50;;;1.20;99.90;;;;;;5051918;28;20228;-73